sensor_id;sensor_type;location;lat;lon;timestamp;pressure;altitude;pressure_sealevel;temperature;humidity
64354;BME280;50681;53.334;-6.536;2023-03-14T00:02:10;98783.25;;;6.43;100.00
64354;BME280;50681;53.334;-6.536;2023-03-14T00:04:36;98801.25;;;6.06;100.00
64354;BME280;50681;53.334;-6.536;2023-03-14T00:07:03;98810.19;;;5.87;100.00
64354;BME280;50681;53.334;-6.536;2023-03-14T00:09:29;98807.72;;;5.91;100.00
64354;BME280;50681;53.334;-6.536;2023-03-14T00:11:55;98792.44;;;5.91;100.00
64354;BME280;50681;53.334;-6.536;2023-03-14T00:14:20;98802.28;;;5.82;100.00
64354;BME280;50681;53.334;-6.536;2023-03-14T00:16:46;98819.25;;;5.63;100.00
64354;BME280;50681;53.334;-6.536;2023-03-14T00:19:11;98832.81;;;5.95;100.00
64354;BME280;50681;53.334;-6.536;2023-03-14T00:21:37;98817.94;;;5.74;100.00
64354;BME280;50681;53.334;-6.536;2023-03-14T00:24:02;98823.91;;;5.85;100.00
64354;BME280;50681;53.334;-6.536;2023-03-14T00:26:28;98846.13;;;6.00;100.00
64354;BME280;50681;53.334;-6.536;2023-03-14T00:28:54;98859.59;;;6.23;100.00
64354;BME280;50681;53.334;-6.536;2023-03-14T00:31:20;98865.47;;;6.11;100.00
64354;BME280;50681;53.334;-6.536;2023-03-14T00:33:45;98854.06;;;6.05;100.00
64354;BME280;50681;53.334;-6.536;2023-03-14T00:36:16;98859.22;;;6.01;100.00
64354;BME280;50681;53.334;-6.536;2023-03-14T00:38:43;98880.84;;;6.19;100.00
64354;BME280;50681;53.334;-6.536;2023-03-14T00:41:11;98889.47;;;6.30;100.00
64354;BME280;50681;53.334;-6.536;2023-03-14T00:43:38;98887.19;;;6.23;100.00
64354;BME280;50681;53.334;-6.536;2023-03-14T00:46:03;98890.72;;;6.32;100.00
64354;BME280;50681;53.334;-6.536;2023-03-14T00:48:29;98888.59;;;6.07;100.00
64354;BME280;50681;53.334;-6.536;2023-03-14T00:50:55;98894.13;;;5.96;100.00
64354;BME280;50681;53.334;-6.536;2023-03-14T00:53:20;98906.22;;;6.36;100.00
64354;BME280;50681;53.334;-6.536;2023-03-14T00:55:46;98921.19;;;6.37;100.00
64354;BME280;50681;53.334;-6.536;2023-03-14T00:58:14;98924.31;;;6.16;100.00
64354;BME280;50681;53.334;-6.536;2023-03-14T01:00:40;98919.66;;;6.08;100.00
64354;BME280;50681;53.334;-6.536;2023-03-14T01:03:07;98926.78;;;5.98;100.00
64354;BME280;50681;53.334;-6.536;2023-03-14T01:05:32;98923.91;;;5.95;100.00
64354;BME280;50681;53.334;-6.536;2023-03-14T01:07:58;98936.13;;;6.15;100.00
64354;BME280;50681;53.334;-6.536;2023-03-14T01:10:24;98928.66;;;5.84;100.00
64354;BME280;50681;53.334;-6.536;2023-03-14T01:12:50;98939.16;;;5.94;100.00
64354;BME280;50681;53.334;-6.536;2023-03-14T01:15:15;98953.00;;;6.15;100.00
64354;BME280;50681;53.334;-6.536;2023-03-14T01:17:41;98966.50;;;6.24;100.00
64354;BME280;50681;53.334;-6.536;2023-03-14T01:20:08;98965.78;;;6.46;100.00
64354;BME280;50681;53.334;-6.536;2023-03-14T01:22:35;98974.44;;;6.15;100.00
64354;BME280;50681;53.334;-6.536;2023-03-14T01:25:01;98970.69;;;6.16;100.00
64354;BME280;50681;53.334;-6.536;2023-03-14T01:27:27;98964.19;;;6.31;100.00
64354;BME280;50681;53.334;-6.536;2023-03-14T01:29:52;98990.00;;;6.27;100.00
64354;BME280;50681;53.334;-6.536;2023-03-14T01:32:17;98997.19;;;6.32;100.00
64354;BME280;50681;53.334;-6.536;2023-03-14T01:34:43;98987.53;;;6.31;100.00
64354;BME280;50681;53.334;-6.536;2023-03-14T01:37:08;98998.34;;;6.54;100.00
64354;BME280;50681;53.334;-6.536;2023-03-14T01:39:34;99020.19;;;6.47;100.00
64354;BME280;50681;53.334;-6.536;2023-03-14T01:42:02;99030.09;;;6.60;100.00
64354;BME280;50681;53.334;-6.536;2023-03-14T01:44:28;99033.13;;;6.31;100.00
64354;BME280;50681;53.334;-6.536;2023-03-14T01:46:53;99055.16;;;6.42;100.00
64354;BME280;50681;53.334;-6.536;2023-03-14T01:49:28;99075.03;;;6.55;100.00
64354;BME280;50681;53.334;-6.536;2023-03-14T01:52:10;99075.06;;;6.08;100.00
64354;BME280;50681;53.334;-6.536;2023-03-14T01:54:48;99093.19;;;5.97;100.00
64354;BME280;50681;53.334;-6.536;2023-03-14T01:57:32;99108.13;;;6.03;100.00
64354;BME280;50681;53.334;-6.536;2023-03-14T02:00:09;99093.06;;;5.88;100.00
64354;BME280;50681;53.334;-6.536;2023-03-14T02:02:42;99119.63;;;6.03;100.00
64354;BME280;50681;53.334;-6.536;2023-03-14T02:05:10;99125.50;;;5.86;100.00
64354;BME280;50681;53.334;-6.536;2023-03-14T02:07:52;99133.59;;;6.00;100.00
64354;BME280;50681;53.334;-6.536;2023-03-14T02:10:21;99152.91;;;6.16;100.00
64354;BME280;50681;53.334;-6.536;2023-03-14T02:12:49;99135.25;;;5.96;100.00
64354;BME280;50681;53.334;-6.536;2023-03-14T02:15:16;99141.84;;;5.85;100.00
64354;BME280;50681;53.334;-6.536;2023-03-14T02:17:43;99161.63;;;6.08;100.00
64354;BME280;50681;53.334;-6.536;2023-03-14T02:23:05;99179.66;;;5.64;100.00
64354;BME280;50681;53.334;-6.536;2023-03-14T02:25:45;99191.31;;;6.12;100.00
64354;BME280;50681;53.334;-6.536;2023-03-14T02:28:12;99185.03;;;5.83;100.00
64354;BME280;50681;53.334;-6.536;2023-03-14T02:30:38;99208.13;;;6.17;100.00
64354;BME280;50681;53.334;-6.536;2023-03-14T02:33:13;99216.13;;;5.98;100.00
64354;BME280;50681;53.334;-6.536;2023-03-14T02:35:44;99223.72;;;6.29;100.00
64354;BME280;50681;53.334;-6.536;2023-03-14T02:38:37;99235.53;;;5.90;100.00
64354;BME280;50681;53.334;-6.536;2023-03-14T02:41:05;99242.88;;;6.03;100.00
64354;BME280;50681;53.334;-6.536;2023-03-14T02:43:30;99217.38;;;5.87;100.00
64354;BME280;50681;53.334;-6.536;2023-03-14T02:45:56;99234.84;;;5.84;100.00
64354;BME280;50681;53.334;-6.536;2023-03-14T02:48:40;99202.84;;;5.74;100.00
64354;BME280;50681;53.334;-6.536;2023-03-14T02:51:07;99195.50;;;6.18;100.00
64354;BME280;50681;53.334;-6.536;2023-03-14T02:53:36;99197.47;;;6.45;100.00
64354;BME280;50681;53.334;-6.536;2023-03-14T02:56:03;99215.22;;;6.41;100.00
64354;BME280;50681;53.334;-6.536;2023-03-14T02:58:29;99202.16;;;6.54;100.00
64354;BME280;50681;53.334;-6.536;2023-03-14T03:00:54;99187.97;;;6.81;100.00
64354;BME280;50681;53.334;-6.536;2023-03-14T03:03:20;99203.69;;;7.16;100.00
64354;BME280;50681;53.334;-6.536;2023-03-14T03:05:50;99209.94;;;7.25;100.00
64354;BME280;50681;53.334;-6.536;2023-03-14T03:08:16;99216.41;;;7.10;100.00
64354;BME280;50681;53.334;-6.536;2023-03-14T03:10:42;99214.41;;;7.02;100.00
64354;BME280;50681;53.334;-6.536;2023-03-14T03:13:07;99237.56;;;6.98;100.00
64354;BME280;50681;53.334;-6.536;2023-03-14T03:15:33;99234.88;;;6.98;100.00
64354;BME280;50681;53.334;-6.536;2023-03-14T03:17:59;99256.66;;;7.10;100.00
64354;BME280;50681;53.334;-6.536;2023-03-14T03:20:24;99233.97;;;6.88;100.00
64354;BME280;50681;53.334;-6.536;2023-03-14T03:22:50;99263.41;;;6.94;100.00
64354;BME280;50681;53.334;-6.536;2023-03-14T03:25:15;99315.22;;;6.61;100.00
64354;BME280;50681;53.334;-6.536;2023-03-14T03:27:48;99322.25;;;6.57;100.00
64354;BME280;50681;53.334;-6.536;2023-03-14T03:30:14;99324.78;;;6.67;100.00
64354;BME280;50681;53.334;-6.536;2023-03-14T03:32:39;99359.56;;;6.53;100.00
64354;BME280;50681;53.334;-6.536;2023-03-14T03:35:05;99391.91;;;6.24;100.00
64354;BME280;50681;53.334;-6.536;2023-03-14T03:37:31;99379.53;;;6.03;100.00
64354;BME280;50681;53.334;-6.536;2023-03-14T03:39:57;99381.34;;;5.84;100.00
64354;BME280;50681;53.334;-6.536;2023-03-14T03:42:22;99390.19;;;6.09;100.00
64354;BME280;50681;53.334;-6.536;2023-03-14T03:44:48;99398.41;;;5.69;100.00
64354;BME280;50681;53.334;-6.536;2023-03-14T03:47:13;99389.34;;;6.13;100.00
64354;BME280;50681;53.334;-6.536;2023-03-14T03:49:39;99385.38;;;6.30;100.00
64354;BME280;50681;53.334;-6.536;2023-03-14T03:52:04;99376.09;;;6.22;100.00
64354;BME280;50681;53.334;-6.536;2023-03-14T03:54:29;99394.78;;;6.27;100.00
64354;BME280;50681;53.334;-6.536;2023-03-14T03:56:55;99399.50;;;6.16;100.00
64354;BME280;50681;53.334;-6.536;2023-03-14T03:59:20;99412.66;;;6.13;100.00
64354;BME280;50681;53.334;-6.536;2023-03-14T04:01:46;99435.69;;;5.89;100.00
64354;BME280;50681;53.334;-6.536;2023-03-14T04:04:12;99437.44;;;5.45;100.00
64354;BME280;50681;53.334;-6.536;2023-03-14T04:06:38;99428.91;;;5.43;100.00
64354;BME280;50681;53.334;-6.536;2023-03-14T04:09:03;99471.00;;;5.67;100.00
64354;BME280;50681;53.334;-6.536;2023-03-14T04:11:29;99471.09;;;5.57;100.00
64354;BME280;50681;53.334;-6.536;2023-03-14T04:13:54;99501.63;;;5.56;100.00
64354;BME280;50681;53.334;-6.536;2023-03-14T04:16:24;99489.00;;;5.62;100.00
64354;BME280;50681;53.334;-6.536;2023-03-14T04:18:51;99484.47;;;5.86;100.00
64354;BME280;50681;53.334;-6.536;2023-03-14T04:21:17;99481.41;;;5.39;100.00
64354;BME280;50681;53.334;-6.536;2023-03-14T04:23:42;99516.91;;;5.55;100.00
64354;BME280;50681;53.334;-6.536;2023-03-14T04:26:08;99521.03;;;5.37;100.00
64354;BME280;50681;53.334;-6.536;2023-03-14T04:28:33;99532.00;;;5.41;100.00
64354;BME280;50681;53.334;-6.536;2023-03-14T04:31:13;99542.13;;;5.79;100.00
64354;BME280;50681;53.334;-6.536;2023-03-14T04:33:39;99546.63;;;5.54;100.00
64354;BME280;50681;53.334;-6.536;2023-03-14T04:36:05;99533.34;;;5.38;100.00
64354;BME280;50681;53.334;-6.536;2023-03-14T04:38:31;99562.81;;;5.38;100.00
64354;BME280;50681;53.334;-6.536;2023-03-14T04:40:57;99571.75;;;5.58;100.00
64354;BME280;50681;53.334;-6.536;2023-03-14T04:43:23;99560.06;;;5.49;100.00
64354;BME280;50681;53.334;-6.536;2023-03-14T04:45:48;99559.25;;;5.48;100.00
64354;BME280;50681;53.334;-6.536;2023-03-14T04:48:14;99588.59;;;5.64;100.00
64354;BME280;50681;53.334;-6.536;2023-03-14T04:50:39;99574.47;;;5.53;100.00
64354;BME280;50681;53.334;-6.536;2023-03-14T04:53:05;99581.69;;;5.57;100.00
64354;BME280;50681;53.334;-6.536;2023-03-14T04:55:32;99586.41;;;5.71;100.00
64354;BME280;50681;53.334;-6.536;2023-03-14T04:57:57;99620.19;;;5.67;100.00
64354;BME280;50681;53.334;-6.536;2023-03-14T05:00:23;99602.91;;;5.43;100.00
64354;BME280;50681;53.334;-6.536;2023-03-14T05:02:49;99635.19;;;5.23;100.00
64354;BME280;50681;53.334;-6.536;2023-03-14T05:05:14;99637.41;;;5.10;100.00
64354;BME280;50681;53.334;-6.536;2023-03-14T05:07:39;99653.75;;;4.98;100.00
64354;BME280;50681;53.334;-6.536;2023-03-14T05:10:05;99665.78;;;5.01;100.00
64354;BME280;50681;53.334;-6.536;2023-03-14T05:12:31;99665.34;;;4.73;100.00
64354;BME280;50681;53.334;-6.536;2023-03-14T05:14:56;99655.75;;;4.67;100.00
64354;BME280;50681;53.334;-6.536;2023-03-14T05:17:21;99677.03;;;5.03;100.00
64354;BME280;50681;53.334;-6.536;2023-03-14T05:19:47;99667.69;;;4.90;100.00
64354;BME280;50681;53.334;-6.536;2023-03-14T05:22:12;99660.03;;;4.52;100.00
64354;BME280;50681;53.334;-6.536;2023-03-14T05:24:38;99669.09;;;4.77;100.00
64354;BME280;50681;53.334;-6.536;2023-03-14T05:27:04;99686.97;;;4.77;100.00
64354;BME280;50681;53.334;-6.536;2023-03-14T05:29:30;99704.09;;;4.76;100.00
64354;BME280;50681;53.334;-6.536;2023-03-14T05:31:55;99683.53;;;4.71;100.00
64354;BME280;50681;53.334;-6.536;2023-03-14T05:34:21;99683.56;;;4.66;100.00
64354;BME280;50681;53.334;-6.536;2023-03-14T05:36:46;99692.34;;;4.71;100.00
64354;BME280;50681;53.334;-6.536;2023-03-14T05:39:11;99704.41;;;4.69;100.00
64354;BME280;50681;53.334;-6.536;2023-03-14T05:41:37;99707.84;;;4.75;100.00
64354;BME280;50681;53.334;-6.536;2023-03-14T05:44:03;99707.09;;;4.64;100.00
64354;BME280;50681;53.334;-6.536;2023-03-14T05:46:28;99702.28;;;4.50;100.00
64354;BME280;50681;53.334;-6.536;2023-03-14T05:48:56;99734.06;;;4.62;100.00
64354;BME280;50681;53.334;-6.536;2023-03-14T05:51:22;99743.16;;;4.56;100.00
64354;BME280;50681;53.334;-6.536;2023-03-14T05:53:47;99738.66;;;4.46;100.00
64354;BME280;50681;53.334;-6.536;2023-03-14T05:56:12;99720.72;;;4.31;100.00
64354;BME280;50681;53.334;-6.536;2023-03-14T05:58:38;99726.59;;;4.28;100.00
64354;BME280;50681;53.334;-6.536;2023-03-14T06:01:05;99749.88;;;4.43;100.00
64354;BME280;50681;53.334;-6.536;2023-03-14T06:03:32;99758.97;;;4.47;100.00
64354;BME280;50681;53.334;-6.536;2023-03-14T06:05:58;99761.09;;;4.35;100.00
64354;BME280;50681;53.334;-6.536;2023-03-14T06:08:23;99758.41;;;4.19;100.00
64354;BME280;50681;53.334;-6.536;2023-03-14T06:10:50;99772.31;;;4.37;100.00
64354;BME280;50681;53.334;-6.536;2023-03-14T06:13:15;99777.13;;;4.30;100.00
64354;BME280;50681;53.334;-6.536;2023-03-14T06:15:41;99775.00;;;4.32;100.00
64354;BME280;50681;53.334;-6.536;2023-03-14T06:18:07;99784.88;;;4.41;100.00
64354;BME280;50681;53.334;-6.536;2023-03-14T06:20:32;99799.84;;;4.37;100.00
64354;BME280;50681;53.334;-6.536;2023-03-14T06:22:58;99800.34;;;4.24;100.00
64354;BME280;50681;53.334;-6.536;2023-03-14T06:25:24;99807.31;;;4.30;100.00
64354;BME280;50681;53.334;-6.536;2023-03-14T06:27:49;99804.91;;;4.18;100.00
64354;BME280;50681;53.334;-6.536;2023-03-14T06:30:15;99794.75;;;4.10;100.00
64354;BME280;50681;53.334;-6.536;2023-03-14T06:32:40;99799.56;;;4.13;100.00
64354;BME280;50681;53.334;-6.536;2023-03-14T06:35:06;99810.22;;;4.08;100.00
64354;BME280;50681;53.334;-6.536;2023-03-14T06:37:31;99831.63;;;4.18;100.00
64354;BME280;50681;53.334;-6.536;2023-03-14T06:39:57;99820.06;;;3.92;100.00
64354;BME280;50681;53.334;-6.536;2023-03-14T06:42:22;99819.28;;;4.02;100.00
64354;BME280;50681;53.334;-6.536;2023-03-14T06:44:48;99826.28;;;4.18;100.00
64354;BME280;50681;53.334;-6.536;2023-03-14T06:47:13;99828.97;;;4.18;100.00
64354;BME280;50681;53.334;-6.536;2023-03-14T06:49:39;99843.38;;;4.17;100.00
64354;BME280;50681;53.334;-6.536;2023-03-14T06:52:04;99843.34;;;4.07;100.00
64354;BME280;50681;53.334;-6.536;2023-03-14T06:54:30;99857.75;;;4.01;100.00
64354;BME280;50681;53.334;-6.536;2023-03-14T06:56:55;99858.78;;;3.89;100.00
64354;BME280;50681;53.334;-6.536;2023-03-14T06:59:21;99858.25;;;3.92;100.00
64354;BME280;50681;53.334;-6.536;2023-03-14T07:01:46;99866.84;;;4.00;100.00
64354;BME280;50681;53.334;-6.536;2023-03-14T07:04:13;99903.81;;;4.34;100.00
64354;BME280;50681;53.334;-6.536;2023-03-14T07:06:38;99898.84;;;3.89;100.00
64354;BME280;50681;53.334;-6.536;2023-03-14T07:09:05;99903.38;;;3.89;100.00
64354;BME280;50681;53.334;-6.536;2023-03-14T07:11:30;99929.94;;;4.11;100.00
64354;BME280;50681;53.334;-6.536;2023-03-14T07:13:55;99935.22;;;3.95;100.00
64354;BME280;50681;53.334;-6.536;2023-03-14T07:16:21;99918.63;;;3.93;100.00
64354;BME280;50681;53.334;-6.536;2023-03-14T07:18:47;99907.94;;;3.93;100.00
64354;BME280;50681;53.334;-6.536;2023-03-14T07:21:12;99945.41;;;4.04;100.00
64354;BME280;50681;53.334;-6.536;2023-03-14T07:23:38;99961.84;;;4.44;100.00
64354;BME280;50681;53.334;-6.536;2023-03-14T07:26:04;99966.81;;;4.14;100.00
64354;BME280;50681;53.334;-6.536;2023-03-14T07:28:29;99964.84;;;4.58;100.00
64354;BME280;50681;53.334;-6.536;2023-03-14T07:30:55;99947.19;;;4.56;100.00
64354;BME280;50681;53.334;-6.536;2023-03-14T07:33:20;99967.75;;;4.56;100.00
64354;BME280;50681;53.334;-6.536;2023-03-14T07:35:49;99968.13;;;4.85;100.00
64354;BME280;50681;53.334;-6.536;2023-03-14T07:38:15;99984.19;;;4.91;100.00
64354;BME280;50681;53.334;-6.536;2023-03-14T07:40:40;99991.94;;;5.03;100.00
64354;BME280;50681;53.334;-6.536;2023-03-14T07:43:06;100017.34;;;4.95;100.00
64354;BME280;50681;53.334;-6.536;2023-03-14T07:45:32;100008.50;;;4.89;100.00
64354;BME280;50681;53.334;-6.536;2023-03-14T07:47:57;100007.72;;;4.89;100.00
64354;BME280;50681;53.334;-6.536;2023-03-14T07:50:26;100011.22;;;5.20;100.00
64354;BME280;50681;53.334;-6.536;2023-03-14T07:52:54;100028.03;;;4.84;100.00
64354;BME280;50681;53.334;-6.536;2023-03-14T07:55:19;100010.94;;;5.01;100.00
64354;BME280;50681;53.334;-6.536;2023-03-14T07:57:45;100036.13;;;5.41;100.00
64354;BME280;50681;53.334;-6.536;2023-03-14T08:00:11;100014.47;;;5.48;100.00
64354;BME280;50681;53.334;-6.536;2023-03-14T08:02:37;100036.94;;;5.63;100.00
64354;BME280;50681;53.334;-6.536;2023-03-14T08:05:03;100018.44;;;5.61;100.00
64354;BME280;50681;53.334;-6.536;2023-03-14T08:07:29;100037.72;;;5.79;100.00
64354;BME280;50681;53.334;-6.536;2023-03-14T08:09:54;100035.59;;;5.76;100.00
64354;BME280;50681;53.334;-6.536;2023-03-14T08:12:20;100040.41;;;5.84;100.00
64354;BME280;50681;53.334;-6.536;2023-03-14T08:14:45;100046.84;;;5.57;100.00
64354;BME280;50681;53.334;-6.536;2023-03-14T08:17:11;100043.63;;;5.70;100.00
64354;BME280;50681;53.334;-6.536;2023-03-14T08:19:37;100061.56;;;5.96;100.00
64354;BME280;50681;53.334;-6.536;2023-03-14T08:22:03;100051.13;;;5.68;100.00
64354;BME280;50681;53.334;-6.536;2023-03-14T08:24:32;100042.31;;;5.68;100.00
64354;BME280;50681;53.334;-6.536;2023-03-14T08:26:58;100041.47;;;5.47;100.00
64354;BME280;50681;53.334;-6.536;2023-03-14T08:29:23;100064.28;;;5.65;100.00
64354;BME280;50681;53.334;-6.536;2023-03-14T08:31:49;100046.59;;;5.64;100.00
64354;BME280;50681;53.334;-6.536;2023-03-14T08:34:18;100074.44;;;5.68;100.00
64354;BME280;50681;53.334;-6.536;2023-03-14T08:36:44;100086.47;;;5.60;100.00
64354;BME280;50681;53.334;-6.536;2023-03-14T08:39:10;100068.03;;;5.64;100.00
64354;BME280;50681;53.334;-6.536;2023-03-14T08:41:35;100085.69;;;5.80;100.00
64354;BME280;50681;53.334;-6.536;2023-03-14T08:44:06;100090.78;;;5.92;100.00
64354;BME280;50681;53.334;-6.536;2023-03-14T08:46:32;100082.19;;;5.80;100.00
64354;BME280;50681;53.334;-6.536;2023-03-14T08:48:57;100076.84;;;5.59;100.00
64354;BME280;50681;53.334;-6.536;2023-03-14T08:51:22;100088.38;;;5.75;100.00
64354;BME280;50681;53.334;-6.536;2023-03-14T08:53:48;100093.44;;;5.92;100.00
64354;BME280;50681;53.334;-6.536;2023-03-14T08:56:13;100081.97;;;6.07;100.00
64354;BME280;50681;53.334;-6.536;2023-03-14T08:58:39;100081.94;;;6.12;100.00
64354;BME280;50681;53.334;-6.536;2023-03-14T09:01:09;100100.66;;;6.49;100.00
64354;BME280;50681;53.334;-6.536;2023-03-14T09:03:35;100095.06;;;6.24;100.00
64354;BME280;50681;53.334;-6.536;2023-03-14T09:06:14;100113.47;;;6.67;100.00
64354;BME280;50681;53.334;-6.536;2023-03-14T09:08:43;100083.81;;;6.17;100.00
64354;BME280;50681;53.334;-6.536;2023-03-14T09:13:15;100113.56;;;6.31;100.00
64354;BME280;50681;53.334;-6.536;2023-03-14T09:15:43;100105.97;;;6.59;100.00
64354;BME280;50681;53.334;-6.536;2023-03-14T09:18:24;100107.59;;;6.55;100.00
64354;BME280;50681;53.334;-6.536;2023-03-14T09:20:50;100092.72;;;6.88;100.00
64354;BME280;50681;53.334;-6.536;2023-03-14T09:23:17;100101.13;;;6.66;100.00
64354;BME280;50681;53.334;-6.536;2023-03-14T09:25:45;100101.25;;;6.96;100.00
64354;BME280;50681;53.334;-6.536;2023-03-14T09:28:12;100122.97;;;7.04;100.00
64354;BME280;50681;53.334;-6.536;2023-03-14T09:30:38;100124.03;;;7.09;100.00
64354;BME280;50681;53.334;-6.536;2023-03-14T09:33:04;100113.53;;;7.12;100.00
64354;BME280;50681;53.334;-6.536;2023-03-14T09:35:30;100131.91;;;7.45;100.00
64354;BME280;50681;53.334;-6.536;2023-03-14T09:37:55;100136.94;;;7.06;100.00
64354;BME280;50681;53.334;-6.536;2023-03-14T09:40:21;100140.31;;;7.28;100.00
64354;BME280;50681;53.334;-6.536;2023-03-14T09:42:51;100146.34;;;7.54;100.00
64354;BME280;50681;53.334;-6.536;2023-03-14T09:45:26;100129.59;;;7.23;100.00
64354;BME280;50681;53.334;-6.536;2023-03-14T09:47:54;100110.38;;;7.00;100.00
64354;BME280;50681;53.334;-6.536;2023-03-14T09:50:21;100142.88;;;6.98;100.00
64354;BME280;50681;53.334;-6.536;2023-03-14T09:52:49;100112.34;;;6.84;100.00
64354;BME280;50681;53.334;-6.536;2023-03-14T09:55:21;100122.44;;;7.53;100.00
64354;BME280;50681;53.334;-6.536;2023-03-14T09:57:48;100148.84;;;7.35;100.00
64354;BME280;50681;53.334;-6.536;2023-03-14T10:00:26;100152.22;;;7.61;100.00
64354;BME280;50681;53.334;-6.536;2023-03-14T10:02:56;100170.75;;;7.98;100.00
64354;BME280;50681;53.334;-6.536;2023-03-14T10:05:24;100164.25;;;8.04;100.00
64354;BME280;50681;53.334;-6.536;2023-03-14T10:07:50;100168.75;;;8.43;100.00
64354;BME280;50681;53.334;-6.536;2023-03-14T10:10:20;100185.09;;;8.17;100.00
64354;BME280;50681;53.334;-6.536;2023-03-14T10:12:52;100201.22;;;8.57;100.00
64354;BME280;50681;53.334;-6.536;2023-03-14T10:15:25;100190.56;;;8.42;100.00
64354;BME280;50681;53.334;-6.536;2023-03-14T10:17:51;100168.50;;;8.10;100.00
64354;BME280;50681;53.334;-6.536;2023-03-14T10:22:58;100177.63;;;8.44;100.00
64354;BME280;50681;53.334;-6.536;2023-03-14T10:25:32;100178.41;;;8.44;100.00
64354;BME280;50681;53.334;-6.536;2023-03-14T10:27:58;100199.09;;;8.78;100.00
64354;BME280;50681;53.334;-6.536;2023-03-14T10:35:45;100198.44;;;9.35;100.00
64354;BME280;50681;53.334;-6.536;2023-03-14T10:38:14;100177.94;;;9.59;100.00
64354;BME280;50681;53.334;-6.536;2023-03-14T10:40:46;100187.03;;;9.44;100.00
64354;BME280;50681;53.334;-6.536;2023-03-14T10:43:17;100171.72;;;9.58;100.00
64354;BME280;50681;53.334;-6.536;2023-03-14T10:45:54;100197.66;;;9.92;100.00
64354;BME280;50681;53.334;-6.536;2023-03-14T10:48:32;100173.25;;;9.64;100.00
64354;BME280;50681;53.334;-6.536;2023-03-14T10:51:18;100189.41;;;9.26;100.00
64354;BME280;50681;53.334;-6.536;2023-03-14T10:53:56;100175.09;;;9.31;100.00
64354;BME280;50681;53.334;-6.536;2023-03-14T10:56:36;100207.34;;;9.93;100.00
64354;BME280;50681;53.334;-6.536;2023-03-14T10:59:14;100203.28;;;9.58;100.00
64354;BME280;50681;53.334;-6.536;2023-03-14T11:01:58;100211.00;;;9.83;100.00
64354;BME280;50681;53.334;-6.536;2023-03-14T11:04:49;100209.16;;;10.17;100.00
64354;BME280;50681;53.334;-6.536;2023-03-14T11:13:06;100212.06;;;10.21;100.00
64354;BME280;50681;53.334;-6.536;2023-03-14T11:15:45;100204.69;;;10.73;100.00
64354;BME280;50681;53.334;-6.536;2023-03-14T11:20:59;100207.50;;;10.82;100.00
64354;BME280;50681;53.334;-6.536;2023-03-14T11:29:43;100202.19;;;11.70;100.00
64354;BME280;50681;53.334;-6.536;2023-03-14T11:32:14;100198.78;;;11.41;100.00
64354;BME280;50681;53.334;-6.536;2023-03-14T11:34:52;100198.81;;;11.13;100.00
64354;BME280;50681;53.334;-6.536;2023-03-14T11:37:36;100201.78;;;11.76;100.00
64354;BME280;50681;53.334;-6.536;2023-03-14T11:40:22;100196.00;;;11.05;100.00
64354;BME280;50681;53.334;-6.536;2023-03-14T11:43:16;100194.19;;;10.58;100.00
64354;BME280;50681;53.334;-6.536;2023-03-14T11:45:45;100206.28;;;10.74;100.00
64354;BME280;50681;53.334;-6.536;2023-03-14T11:48:38;100199.09;;;11.12;100.00
64354;BME280;50681;53.334;-6.536;2023-03-14T11:51:07;100177.00;;;11.60;100.00
64354;BME280;50681;53.334;-6.536;2023-03-14T11:59:23;100198.59;;;11.24;100.00
64354;BME280;50681;53.334;-6.536;2023-03-14T12:01:54;100190.00;;;10.66;100.00
64354;BME280;50681;53.334;-6.536;2023-03-14T12:10:49;100210.53;;;10.14;100.00
64354;BME280;50681;53.334;-6.536;2023-03-14T12:13:17;100240.88;;;9.68;100.00
64354;BME280;50681;53.334;-6.536;2023-03-14T12:15:54;100242.81;;;9.43;100.00
64354;BME280;50681;53.334;-6.536;2023-03-14T12:20:52;100245.72;;;9.27;100.00
64354;BME280;50681;53.334;-6.536;2023-03-14T12:23:19;100249.56;;;9.65;100.00
64354;BME280;50681;53.334;-6.536;2023-03-14T12:25:45;100257.38;;;9.18;100.00
64354;BME280;50681;53.334;-6.536;2023-03-14T12:28:22;100257.31;;;9.47;100.00
64354;BME280;50681;53.334;-6.536;2023-03-14T12:30:55;100249.84;;;9.63;100.00
64354;BME280;50681;53.334;-6.536;2023-03-14T12:33:30;100261.00;;;9.95;100.00
64354;BME280;50681;53.334;-6.536;2023-03-14T12:36:01;100233.28;;;9.51;100.00
64354;BME280;50681;53.334;-6.536;2023-03-14T12:41:21;100264.41;;;9.62;100.00
64354;BME280;50681;53.334;-6.536;2023-03-14T12:43:49;100276.31;;;10.19;100.00
64354;BME280;50681;53.334;-6.536;2023-03-14T12:48:49;100283.06;;;10.54;100.00
64354;BME280;50681;53.334;-6.536;2023-03-14T12:56:11;100280.53;;;10.44;100.00
64354;BME280;50681;53.334;-6.536;2023-03-14T13:01:26;100274.69;;;9.98;100.00
64354;BME280;50681;53.334;-6.536;2023-03-14T13:03:55;100293.09;;;10.15;100.00
64354;BME280;50681;53.334;-6.536;2023-03-14T13:06:53;100280.25;;;10.46;100.00
64354;BME280;50681;53.334;-6.536;2023-03-14T13:11:54;100261.88;;;10.62;100.00
64354;BME280;50681;53.334;-6.536;2023-03-14T13:14:20;100266.88;;;10.54;100.00
64354;BME280;50681;53.334;-6.536;2023-03-14T13:16:49;100270.13;;;10.84;100.00
64354;BME280;50681;53.334;-6.536;2023-03-14T13:19:26;100251.13;;;11.03;100.00
64354;BME280;50681;53.334;-6.536;2023-03-14T13:21:59;100275.78;;;10.55;100.00
64354;BME280;50681;53.334;-6.536;2023-03-14T13:24:27;100253.50;;;9.92;100.00
64354;BME280;50681;53.334;-6.536;2023-03-14T13:26:55;100251.34;;;9.50;100.00
64354;BME280;50681;53.334;-6.536;2023-03-14T13:29:27;100251.50;;;9.40;100.00
64354;BME280;50681;53.334;-6.536;2023-03-14T13:31:55;100259.44;;;9.26;100.00
64354;BME280;50681;53.334;-6.536;2023-03-14T13:34:34;100263.91;;;9.98;100.00
64354;BME280;50681;53.334;-6.536;2023-03-14T13:37:00;100259.16;;;10.28;100.00
64354;BME280;50681;53.334;-6.536;2023-03-14T13:39:28;100270.09;;;10.18;100.00
64354;BME280;50681;53.334;-6.536;2023-03-14T13:41:58;100265.22;;;10.39;100.00
64354;BME280;50681;53.334;-6.536;2023-03-14T13:44:32;100255.59;;;10.33;100.00
64354;BME280;50681;53.334;-6.536;2023-03-14T13:47:00;100278.66;;;10.06;100.00
64354;BME280;50681;53.334;-6.536;2023-03-14T13:49:27;100288.56;;;9.92;100.00